createdAt,value
2023-02-14T00:01:11.706Z,44.50
2023-02-14T00:03:38.835Z,44.60
2023-02-14T00:06:11.308Z,44.50
2023-02-14T00:08:41.136Z,44.50
2023-02-14T00:11:11.157Z,44.50
2023-02-14T00:13:38.186Z,44.30
2023-02-14T00:16:05.279Z,45.00
2023-02-14T00:18:58.450Z,44.40
2023-02-14T00:21:25.311Z,44.40
2023-02-14T00:23:52.769Z,44.30
2023-02-14T00:26:19.607Z,44.20
2023-02-14T00:28:46.539Z,44.20
2023-02-14T00:31:13.643Z,44.10
2023-02-14T00:33:40.579Z,44.10
2023-02-14T00:36:07.835Z,43.90
2023-02-14T00:38:34.992Z,44.00
2023-02-14T00:41:02.508Z,44.10
2023-02-14T00:43:29.817Z,44.20
2023-02-14T00:45:56.897Z,44.40
2023-02-14T00:48:23.787Z,44.60
2023-02-14T00:50:50.659Z,44.80
2023-02-14T00:53:17.476Z,44.90
2023-02-14T00:55:46.453Z,45.10
2023-02-14T00:58:13.491Z,45.20
2023-02-14T01:00:40.616Z,45.30
2023-02-14T01:03:07.624Z,45.50
2023-02-14T01:05:34.539Z,45.60
2023-02-14T01:08:01.435Z,45.40
2023-02-14T01:10:28.439Z,45.50
2023-02-14T01:12:55.372Z,45.60
2023-02-14T01:15:22.700Z,45.60
2023-02-14T01:17:49.577Z,45.60
2023-02-14T01:20:16.622Z,45.70
2023-02-14T01:22:43.464Z,45.60
2023-02-14T01:25:10.440Z,45.60
2023-02-14T01:27:37.540Z,45.60
2023-02-14T01:30:05.584Z,45.60
2023-02-14T01:32:32.858Z,45.50
2023-02-14T01:34:59.914Z,45.60
2023-02-14T01:37:27.356Z,45.50
2023-02-14T01:39:54.211Z,45.70
2023-02-14T01:42:21.069Z,45.90
2023-02-14T01:44:47.897Z,46.10
2023-02-14T01:47:15.932Z,46.30
2023-02-14T01:49:52.826Z,46.50
2023-02-14T01:52:50.905Z,46.50
2023-02-14T01:55:21.801Z,46.40
2023-02-14T01:58:06.660Z,46.30
2023-02-14T02:00:52.493Z,46.30
2023-02-14T02:03:21.115Z,46.30
2023-02-14T02:05:51.131Z,46.30
2023-02-14T02:08:18.210Z,46.30
2023-02-14T02:10:45.106Z,46.50
2023-02-14T02:13:20.189Z,46.60
2023-02-14T02:15:59.316Z,46.60
2023-02-14T02:18:57.107Z,46.60
2023-02-14T02:21:23.956Z,46.70
2023-02-14T02:24:02.467Z,46.80
2023-02-14T02:26:39.988Z,46.90
2023-02-14T02:29:27.975Z,46.90
2023-02-14T02:32:31.271Z,46.80
2023-02-14T02:35:41.695Z,46.70
2023-02-14T02:38:45.202Z,46.60
2023-02-14T02:41:24.448Z,46.60
2023-02-14T02:44:23.002Z,46.70
2023-02-14T02:47:09.190Z,46.80
2023-02-14T02:50:10.524Z,46.90
2023-02-14T02:53:07.048Z,47.00
2023-02-14T02:56:20.090Z,47.20
2023-02-14T02:59:18.471Z,47.20
2023-02-14T03:02:11.315Z,48.00
2023-02-14T03:04:54.635Z,47.50
2023-02-14T03:07:40.464Z,47.70
2023-02-14T03:10:35.364Z,47.80
2023-02-14T03:13:30.224Z,48.00
2023-02-14T03:16:18.330Z,48.10
2023-02-14T03:19:21.731Z,48.30
2023-02-14T03:21:58.175Z,48.50
2023-02-14T03:24:40.083Z,48.60
2023-02-14T03:27:23.644Z,48.30
2023-02-14T03:30:33.620Z,48.20
2023-02-14T03:33:13.903Z,48.00
2023-02-14T03:36:12.956Z,48.00
2023-02-14T03:39:12.090Z,48.10
2023-02-14T03:41:46.905Z,48.40
2023-02-14T03:44:20.040Z,48.70
2023-02-14T03:46:52.832Z,48.90
2023-02-14T03:49:26.012Z,49.10
2023-02-14T03:51:56.092Z,49.30
2023-02-14T03:54:24.947Z,49.50
2023-02-14T03:57:33.054Z,49.50
2023-02-14T03:59:59.933Z,49.50
2023-02-14T04:02:32.476Z,49.50
2023-02-14T04:05:01.552Z,49.60
2023-02-14T04:07:28.413Z,49.50
2023-02-14T04:09:55.264Z,49.50
2023-02-14T04:12:36.855Z,49.50
2023-02-14T04:15:05.388Z,49.50
2023-02-14T04:17:50.792Z,49.60
2023-02-14T04:20:17.832Z,49.60
2023-02-14T04:22:46.343Z,49.60
2023-02-14T04:25:13.495Z,49.10
2023-02-14T04:27:40.380Z,49.20
2023-02-14T04:30:08.020Z,49.00
2023-02-14T04:32:34.832Z,48.90
2023-02-14T04:35:01.696Z,48.70
2023-02-14T04:37:28.544Z,48.70
2023-02-14T04:39:55.406Z,48.60
2023-02-14T04:42:22.438Z,48.70
2023-02-14T04:44:49.298Z,48.60
2023-02-14T04:47:16.244Z,48.60
2023-02-14T04:49:43.177Z,48.50
2023-02-14T04:52:10.028Z,48.60
2023-02-14T04:54:36.833Z,48.70
2023-02-14T04:57:03.771Z,48.80
2023-02-14T04:59:30.630Z,48.90
2023-02-14T05:01:57.630Z,48.80
2023-02-14T05:04:24.940Z,48.80
2023-02-14T05:06:52.766Z,48.80
2023-02-14T05:09:19.719Z,48.90
2023-02-14T05:11:46.660Z,48.90
2023-02-14T05:14:13.952Z,48.90
2023-02-14T05:16:40.889Z,49.10
2023-02-14T05:19:07.927Z,49.10
2023-02-14T05:21:34.775Z,49.20
2023-02-14T05:24:02.022Z,49.40
2023-02-14T05:26:29.151Z,49.60
2023-02-14T05:28:56.465Z,49.80
2023-02-14T05:31:23.428Z,49.90
2023-02-14T05:33:50.456Z,50.00
2023-02-14T05:36:17.272Z,50.10
2023-02-14T05:38:44.111Z,50.40
2023-02-14T05:41:11.049Z,50.40
2023-02-14T05:43:38.019Z,50.40
2023-02-14T05:46:05.099Z,50.40
2023-02-14T05:48:32.011Z,50.50
2023-02-14T05:51:07.049Z,50.60
2023-02-14T05:53:34.539Z,50.50
2023-02-14T05:56:01.569Z,50.40
2023-02-14T05:58:28.585Z,50.40
2023-02-14T06:00:57.643Z,50.40
2023-02-14T06:03:24.936Z,50.50
2023-02-14T06:05:52.599Z,50.50
2023-02-14T06:08:19.510Z,50.50
2023-02-14T06:10:46.939Z,50.50
2023-02-14T06:13:13.868Z,50.50
2023-02-14T06:15:40.900Z,50.50
2023-02-14T06:18:08.197Z,50.50
2023-02-14T06:20:36.145Z,50.70
2023-02-14T06:23:03.162Z,50.70
2023-02-14T06:25:29.968Z,50.90
2023-02-14T06:27:58.332Z,51.10
2023-02-14T06:30:26.307Z,51.30
2023-02-14T06:32:53.202Z,51.30
2023-02-14T06:35:20.107Z,51.30
2023-02-14T06:37:47.311Z,51.20
2023-02-14T06:40:14.681Z,51.20
2023-02-14T06:42:41.991Z,51.10
2023-02-14T06:45:09.477Z,51.10
2023-02-14T06:47:36.402Z,51.10
2023-02-14T06:50:05.191Z,51.20
2023-02-14T06:52:33.909Z,51.20
2023-02-14T06:55:00.755Z,51.20
2023-02-14T06:57:27.853Z,51.00
2023-02-14T06:59:54.728Z,51.00
2023-02-14T07:02:24.696Z,50.90
2023-02-14T07:04:51.866Z,51.00
2023-02-14T07:07:18.864Z,50.90
2023-02-14T07:09:45.734Z,50.90
2023-02-14T07:12:12.573Z,50.80
2023-02-14T07:14:39.564Z,50.90
2023-02-14T07:17:06.496Z,50.90
2023-02-14T07:19:33.435Z,50.90
2023-02-14T07:22:00.913Z,51.00
2023-02-14T07:24:27.835Z,51.00
2023-02-14T07:26:54.712Z,50.90
2023-02-14T07:29:21.625Z,50.60
2023-02-14T07:31:48.653Z,50.40
2023-02-14T07:34:15.592Z,50.40
2023-02-14T07:36:44.255Z,50.40
2023-02-14T07:39:11.629Z,50.40
2023-02-14T07:41:38.837Z,50.40
2023-02-14T07:44:05.720Z,50.60
2023-02-14T07:46:32.661Z,50.60
2023-02-14T07:48:59.528Z,50.50
2023-02-14T07:51:26.415Z,50.60
2023-02-14T07:53:53.427Z,50.60
2023-02-14T07:56:20.300Z,50.70
2023-02-14T07:58:47.475Z,50.60
2023-02-14T08:01:14.579Z,50.60
2023-02-14T08:03:41.589Z,50.60
2023-02-14T08:06:08.512Z,50.40
2023-02-14T08:08:35.368Z,50.50
2023-02-14T08:11:02.693Z,51.20
2023-02-14T08:13:29.819Z,50.60
2023-02-14T08:16:06.110Z,50.60
2023-02-14T08:18:38.677Z,50.70
2023-02-14T08:21:07.930Z,50.70
2023-02-14T08:23:35.344Z,50.70
2023-02-14T08:26:02.275Z,50.70
2023-02-14T08:28:29.409Z,50.70
2023-02-14T08:30:57.035Z,50.70
2023-02-14T08:33:24.011Z,50.90
2023-02-14T08:35:52.271Z,51.20
2023-02-14T08:38:19.154Z,51.60
2023-02-14T08:40:46.530Z,51.80
2023-02-14T08:43:13.825Z,51.50
2023-02-14T08:45:41.186Z,51.20
2023-02-14T08:48:10.456Z,50.00
2023-02-14T08:50:38.077Z,49.30
2023-02-14T08:53:09.837Z,47.60
2023-02-14T08:55:37.421Z,46.20
2023-02-14T08:58:05.396Z,44.90
2023-02-14T09:00:33.768Z,44.00
2023-02-14T09:03:01.241Z,42.70
2023-02-14T09:05:28.431Z,41.60
2023-02-14T09:07:58.466Z,40.00
2023-02-14T09:10:26.253Z,38.90
2023-02-14T09:12:53.134Z,37.60
2023-02-14T09:15:20.309Z,36.60
2023-02-14T09:17:47.861Z,35.70
2023-02-14T09:20:15.784Z,34.70
2023-02-14T09:22:42.748Z,34.00
2023-02-14T09:25:09.949Z,33.70
2023-02-14T09:27:37.031Z,33.90
2023-02-14T09:30:05.926Z,34.50
2023-02-14T09:32:33.243Z,34.30
2023-02-14T09:35:00.295Z,34.50
2023-02-14T09:37:46.833Z,34.80
2023-02-14T09:40:16.931Z,35.30
2023-02-14T09:42:50.140Z,36.20
2023-02-14T09:45:21.841Z,36.60
2023-02-14T09:48:06.632Z,37.20
2023-02-14T09:50:40.466Z,37.70
2023-02-14T09:53:28.123Z,38.20
2023-02-14T09:56:15.307Z,39.60
2023-02-14T09:58:48.431Z,40.90
2023-02-14T10:01:33.159Z,41.20
2023-02-14T10:04:27.602Z,40.50
2023-02-14T10:06:54.320Z,39.70
2023-02-14T10:09:50.335Z,39.50
2023-02-14T10:12:40.852Z,38.90
2023-02-14T10:15:22.025Z,39.00
2023-02-14T10:18:17.147Z,39.20
2023-02-14T10:20:54.396Z,39.50
2023-02-14T10:23:49.371Z,39.50
2023-02-14T10:26:32.825Z,40.10
2023-02-14T10:28:59.690Z,40.30
2023-02-14T10:31:43.018Z,40.50
2023-02-14T10:34:28.225Z,41.00
2023-02-14T10:37:22.828Z,41.40
2023-02-14T10:39:58.594Z,41.80
2023-02-14T10:42:56.579Z,41.70
2023-02-14T10:45:26.421Z,42.40
2023-02-14T10:48:08.408Z,42.90
2023-02-14T10:50:46.936Z,43.10
2023-02-14T10:53:37.046Z,43.40
2023-02-14T10:56:14.152Z,43.70
2023-02-14T10:58:42.768Z,43.80
2023-02-14T11:01:18.812Z,43.70
2023-02-14T11:04:08.585Z,43.80
2023-02-14T11:06:35.533Z,43.80
2023-02-14T11:09:03.263Z,43.80
2023-02-14T11:11:42.840Z,43.70
2023-02-14T11:14:33.036Z,43.60
2023-02-14T11:17:14.519Z,43.40
2023-02-14T11:19:41.493Z,43.40
2023-02-14T11:22:10.321Z,43.40
2023-02-14T11:24:41.606Z,43.30
2023-02-14T11:27:17.887Z,43.10
2023-02-14T11:29:53.103Z,43.00
2023-02-14T11:32:31.231Z,42.90
2023-02-14T11:35:04.126Z,43.10
2023-02-14T11:37:42.359Z,43.00
2023-02-14T11:40:26.904Z,43.10
2023-02-14T11:43:02.143Z,43.40
2023-02-14T11:45:39.354Z,43.50
2023-02-14T11:48:22.306Z,43.30
2023-02-14T11:51:05.150Z,43.20
2023-02-14T11:53:53.844Z,43.00
2023-02-14T11:56:22.136Z,43.00
2023-02-14T11:58:59.637Z,43.30
2023-02-14T12:01:28.210Z,43.30
2023-02-14T12:03:57.569Z,43.30
2023-02-14T12:06:27.634Z,42.90
2023-02-14T12:09:23.918Z,43.20
2023-02-14T12:12:14.875Z,43.10
2023-02-14T12:14:41.719Z,43.30
2023-02-14T12:17:11.796Z,43.00
2023-02-14T12:19:46.041Z,43.20
2023-02-14T12:22:41.905Z,43.00
2023-02-14T12:25:16.172Z,42.90
2023-02-14T12:27:51.709Z,43.00
2023-02-14T12:30:21.567Z,42.60
2023-02-14T12:32:51.276Z,42.70
2023-02-14T12:35:36.727Z,42.40
2023-02-14T12:38:32.142Z,42.50
2023-02-14T12:41:08.073Z,42.50
2023-02-14T12:43:55.372Z,42.40
2023-02-14T12:46:34.890Z,42.50
2023-02-14T12:49:22.566Z,42.10
2023-02-14T12:52:07.396Z,42.10
2023-02-14T12:54:58.115Z,41.80
2023-02-14T12:57:27.721Z,42.00
2023-02-14T13:00:09.906Z,42.00
2023-02-14T13:03:21.091Z,41.90
2023-02-14T13:06:13.754Z,42.00
2023-02-14T13:09:01.841Z,41.60
2023-02-14T13:12:05.818Z,41.60
2023-02-14T13:14:53.563Z,41.50
2023-02-14T13:17:41.197Z,41.50
2023-02-14T13:20:19.974Z,41.40
2023-02-14T13:22:48.896Z,41.20
2023-02-14T13:25:33.613Z,41.20
2023-02-14T13:28:06.661Z,41.00
2023-02-14T13:30:35.853Z,40.80
2023-02-14T13:33:08.560Z,40.60
2023-02-14T13:35:36.038Z,40.20
2023-02-14T13:38:08.439Z,39.20
2023-02-14T13:40:36.585Z,39.40
2023-02-14T13:43:03.811Z,39.50
2023-02-14T13:45:32.610Z,38.90
2023-02-14T13:48:19.414Z,38.40
2023-02-14T13:50:57.195Z,37.80
2023-02-14T13:53:45.930Z,37.00
2023-02-14T13:56:12.732Z,36.70
2023-02-14T13:59:04.697Z,36.20
2023-02-14T14:01:35.844Z,36.40
2023-02-14T14:04:05.973Z,36.30
2023-02-14T14:07:18.099Z,36.60
2023-02-14T14:09:45.616Z,36.70
2023-02-14T14:12:27.782Z,36.10
2023-02-14T14:15:06.945Z,36.30
2023-02-14T14:17:39.321Z,36.20
2023-02-14T14:20:21.476Z,36.40
2023-02-14T14:22:53.310Z,36.30
2023-02-14T14:25:32.135Z,36.60
2023-02-14T14:28:00.359Z,36.60
2023-02-14T14:30:33.089Z,36.90
2023-02-14T14:33:13.297Z,36.90
2023-02-14T14:35:40.235Z,37.20
2023-02-14T14:38:14.212Z,37.60
2023-02-14T14:40:46.851Z,37.70
2023-02-14T14:43:21.735Z,38.00
2023-02-14T14:45:51.627Z,37.80
2023-02-14T14:48:29.967Z,38.20
2023-02-14T14:50:58.311Z,38.10
2023-02-14T14:53:37.262Z,38.40
2023-02-14T14:56:04.540Z,38.20
2023-02-14T14:58:41.196Z,38.20
2023-02-14T15:01:14.328Z,38.50
2023-02-14T15:03:41.320Z,38.60
2023-02-14T15:06:19.366Z,38.40
2023-02-14T15:08:47.773Z,38.70
2023-02-14T15:11:35.241Z,38.70
2023-02-14T15:14:05.685Z,39.10
2023-02-14T15:16:45.818Z,38.60
2023-02-14T15:19:20.735Z,39.00
2023-02-14T15:21:47.723Z,39.10
2023-02-14T15:24:17.389Z,39.10
2023-02-14T15:26:47.118Z,39.30
2023-02-14T15:29:23.332Z,39.50
2023-02-14T15:31:51.273Z,39.80
2023-02-14T15:34:23.842Z,39.80
2023-02-14T15:36:59.100Z,40.00
2023-02-14T15:39:47.938Z,40.00
2023-02-14T15:42:32.527Z,40.20
2023-02-14T15:45:22.592Z,40.10
2023-02-14T15:48:14.711Z,40.30
2023-02-14T15:50:49.309Z,40.40
2023-02-14T15:53:29.506Z,40.60
2023-02-14T15:56:07.255Z,40.50
2023-02-14T15:58:36.278Z,40.60
2023-02-14T16:01:04.137Z,40.60
2023-02-14T16:03:37.388Z,40.70
2023-02-14T16:06:05.365Z,40.70
2023-02-14T16:08:37.368Z,40.70
2023-02-14T16:11:15.993Z,40.80
2023-02-14T16:13:46.107Z,40.90
2023-02-14T16:16:14.782Z,41.00
2023-02-14T16:18:42.985Z,41.00
2023-02-14T16:21:15.536Z,41.10
2023-02-14T16:23:44.773Z,41.20
2023-02-14T16:26:11.775Z,41.30
2023-02-14T16:28:39.036Z,41.30
2023-02-14T16:31:11.441Z,41.40
2023-02-14T16:33:40.442Z,42.00
2023-02-14T16:36:22.890Z,41.50
2023-02-14T16:38:50.825Z,41.50
2023-02-14T16:41:28.360Z,41.60
2023-02-14T16:43:56.085Z,41.60
2023-02-14T16:46:30.887Z,41.60
2023-02-14T16:48:59.421Z,41.70
2023-02-14T16:51:29.547Z,41.80
2023-02-14T16:54:00.531Z,41.90
2023-02-14T16:56:33.677Z,41.90
2023-02-14T16:59:00.720Z,42.10
2023-02-14T17:01:27.694Z,42.10
2023-02-14T17:03:54.581Z,42.00
2023-02-14T17:06:31.590Z,42.10
2023-02-14T17:09:02.587Z,42.20
2023-02-14T17:11:32.326Z,42.10
2023-02-14T17:13:59.322Z,42.10
2023-02-14T17:16:26.446Z,42.20
2023-02-14T17:18:53.636Z,42.30
2023-02-14T17:21:22.971Z,42.30
2023-02-14T17:23:50.306Z,42.50
2023-02-14T17:26:18.872Z,42.70
2023-02-14T17:28:46.675Z,42.80
2023-02-14T17:31:14.003Z,43.00
2023-02-14T17:33:40.953Z,43.20
2023-02-14T17:36:11.850Z,43.30
2023-02-14T17:38:40.041Z,43.50
2023-02-14T17:41:20.616Z,43.80
2023-02-14T17:43:48.403Z,43.80
2023-02-14T17:46:16.310Z,44.00
2023-02-14T17:48:45.601Z,44.00
2023-02-14T17:51:13.295Z,44.20
2023-02-14T17:53:41.753Z,44.30
2023-02-14T17:56:14.725Z,44.90
2023-02-14T17:58:41.691Z,45.20
2023-02-14T18:01:11.702Z,45.60
2023-02-14T18:03:39.627Z,45.70
2023-02-14T18:06:08.571Z,46.00
2023-02-14T18:08:39.282Z,45.90
2023-02-14T18:11:12.542Z,45.80
2023-02-14T18:13:39.759Z,45.80
2023-02-14T18:16:11.656Z,45.70
2023-02-14T18:18:39.421Z,45.70
2023-02-14T18:21:09.090Z,45.80
2023-02-14T18:23:36.423Z,45.90
2023-02-14T18:26:06.934Z,46.10
2023-02-14T18:28:34.695Z,46.30
2023-02-14T18:31:09.676Z,46.40
2023-02-14T18:33:37.440Z,46.70
2023-02-14T18:36:07.291Z,46.90
2023-02-14T18:38:35.198Z,47.00
2023-02-14T18:41:03.647Z,47.20
2023-02-14T18:43:31.247Z,47.40
2023-02-14T18:46:10.401Z,47.50
2023-02-14T18:48:37.557Z,47.60
2023-02-14T18:51:19.721Z,47.70
2023-02-14T18:53:47.513Z,47.80
2023-02-14T18:56:16.720Z,47.90
2023-02-14T18:58:48.050Z,48.00
2023-02-14T19:01:23.478Z,48.30
2023-02-14T19:03:53.024Z,48.30
2023-02-14T19:06:20.777Z,48.40
2023-02-14T19:08:48.302Z,48.40
2023-02-14T19:11:27.339Z,48.60
2023-02-14T19:13:56.433Z,48.90
2023-02-14T19:16:29.344Z,48.90
2023-02-14T19:18:56.470Z,49.00
2023-02-14T19:21:26.010Z,48.90
2023-02-14T19:23:54.849Z,49.10
2023-02-14T19:26:26.856Z,49.20
2023-02-14T19:28:59.327Z,49.20
2023-02-14T19:31:27.686Z,49.40
2023-02-14T19:33:54.958Z,49.40
2023-02-14T19:36:23.137Z,49.50
2023-02-14T19:38:51.761Z,49.50
2023-02-14T19:41:31.184Z,49.70
2023-02-14T19:43:59.109Z,49.80
2023-02-14T19:46:27.785Z,50.00
2023-02-14T19:48:57.044Z,50.00
2023-02-14T19:51:30.250Z,50.10
2023-02-14T19:53:59.416Z,50.30
2023-02-14T19:56:32.569Z,50.40
2023-02-14T19:58:59.845Z,50.50
2023-02-14T20:01:29.626Z,50.50
2023-02-14T20:03:56.932Z,50.70
2023-02-14T20:06:25.979Z,50.70
2023-02-14T20:08:53.186Z,50.80
2023-02-14T20:11:35.753Z,50.90
2023-02-14T20:14:04.125Z,51.10
2023-02-14T20:16:33.172Z,51.10
2023-02-14T20:19:05.627Z,51.40
2023-02-14T20:21:32.817Z,51.40
2023-02-14T20:24:04.467Z,51.50
2023-02-14T20:26:32.851Z,51.60
2023-02-14T20:29:01.438Z,51.70
2023-02-14T20:31:28.385Z,51.90
2023-02-14T20:33:55.831Z,51.90
2023-02-14T20:36:22.831Z,52.10
2023-02-14T20:38:58.420Z,52.90
2023-02-14T20:41:27.666Z,52.50
2023-02-14T20:43:55.529Z,52.50
2023-02-14T20:46:23.236Z,52.70
2023-02-14T20:48:51.044Z,52.90
2023-02-14T20:51:19.926Z,52.90
2023-02-14T20:53:47.877Z,53.00
2023-02-14T20:56:16.187Z,53.10
2023-02-14T20:58:43.390Z,53.20
2023-02-14T21:01:20.037Z,53.30
2023-02-14T21:03:50.915Z,53.40
2023-02-14T21:06:19.557Z,53.50
2023-02-14T21:08:47.421Z,53.40
2023-02-14T21:11:16.218Z,53.60
2023-02-14T21:13:43.337Z,53.70
2023-02-14T21:16:15.697Z,53.60
2023-02-14T21:18:47.965Z,53.70
2023-02-14T21:21:23.705Z,53.70
2023-02-14T21:23:53.710Z,53.70
2023-02-14T21:26:21.419Z,53.80
2023-02-14T21:28:48.626Z,53.80
2023-02-14T21:31:18.034Z,53.90
2023-02-14T21:33:44.972Z,53.90
2023-02-14T21:36:13.364Z,53.80
2023-02-14T21:38:40.587Z,53.90
2023-02-14T21:41:16.182Z,54.00
2023-02-14T21:43:44.816Z,54.70
2023-02-14T21:46:17.727Z,54.00
2023-02-14T21:49:03.644Z,54.10
2023-02-14T21:51:31.907Z,53.90
2023-02-14T21:54:02.018Z,54.00
2023-02-14T21:56:28.958Z,54.30
2023-02-14T21:58:56.493Z,54.30
2023-02-14T22:01:26.326Z,54.30
2023-02-14T22:03:54.565Z,54.30
2023-02-14T22:06:22.125Z,54.30
2023-02-14T22:08:56.854Z,54.50
2023-02-14T22:11:25.143Z,54.60
2023-02-14T22:13:52.052Z,54.70
2023-02-14T22:16:20.568Z,54.70
2023-02-14T22:18:48.049Z,54.80
2023-02-14T22:21:24.036Z,54.80
2023-02-14T22:23:51.125Z,54.80
2023-02-14T22:26:24.443Z,54.80
2023-02-14T22:28:55.855Z,54.90
2023-02-14T22:31:24.076Z,54.80
2023-02-14T22:33:51.299Z,54.90
2023-02-14T22:36:18.170Z,54.80
2023-02-14T22:38:45.200Z,54.90
2023-02-14T22:41:16.895Z,54.80
2023-02-14T22:43:44.579Z,54.80
2023-02-14T22:46:14.083Z,54.80
2023-02-14T22:48:41.643Z,54.80
2023-02-14T22:51:09.770Z,54.80
2023-02-14T22:53:37.094Z,54.80
2023-02-14T22:56:19.549Z,55.00
2023-02-14T22:58:46.833Z,55.20
2023-02-14T23:01:16.102Z,55.10
2023-02-14T23:03:44.027Z,55.20
2023-02-14T23:06:11.898Z,55.30
2023-02-14T23:08:40.386Z,55.50
2023-02-14T23:11:09.758Z,55.70
2023-02-14T23:13:56.309Z,55.80
2023-02-14T23:16:42.969Z,55.90
2023-02-14T23:19:36.245Z,55.90
2023-02-14T23:22:21.410Z,55.90
2023-02-14T23:24:49.793Z,56.10
2023-02-14T23:27:19.089Z,56.20
2023-02-14T23:29:46.088Z,56.30
2023-02-14T23:32:13.596Z,56.60
2023-02-14T23:34:42.242Z,56.70
2023-02-14T23:37:10.071Z,56.80
2023-02-14T23:39:37.791Z,57.10
2023-02-14T23:42:10.579Z,57.10
2023-02-14T23:44:37.818Z,57.30
2023-02-14T23:47:06.838Z,57.20
2023-02-14T23:49:35.527Z,57.30
2023-02-14T23:52:03.702Z,57.20
2023-02-14T23:54:30.656Z,57.40
2023-02-14T23:56:57.692Z,57.50
2023-02-14T23:59:24.929Z,57.60
